Santo Antonio do Amparo, Brazil
Current Conditions -  °F | °C
As of 1:00 PM on Tuesday 21 Oct 2014 (Local Time) from SBBQ Reporting Station
Light Rain Light Rain  
Wind Chill: 64°   Ceiling: 700
Heat Index: 64°   Visibility: 1.2mi
Dew Point: 59°   Wind: 8mph
Humidity: 83%   Direction: 140°SE
Pressure: 30.24"   Gusts: NA
Location:  20.95°S, 44.92°W
Report Text: SBBQ 211500Z 14007KT 2000 -RA BKN007 18/15 Q1024
Loading
Personal Weather Stations






























Interactive Weather Map
Tropical Storm Tracking
New forecast layout! Learn more

10-Day Weather Forecast

Advertisements
Track Severe Weather on mobile